sensor_id;sensor_type;location;lat;lon;timestamp;P1;durP1;ratioP1;P2;durP2;ratioP2
48853;SDS011;34673;52.808;17.856;2023-02-18T00:01:25;14.63;;;2.22;;
48853;SDS011;34673;52.808;17.856;2023-02-18T00:03:53;13.20;;;2.50;;
48853;SDS011;34673;52.808;17.856;2023-02-18T00:06:27;11.45;;;1.95;;
48853;SDS011;34673;52.808;17.856;2023-02-18T00:08:57;11.00;;;2.17;;
48853;SDS011;34673;52.808;17.856;2023-02-18T00:11:29;17.15;;;3.17;;
48853;SDS011;34673;52.808;17.856;2023-02-18T00:14:00;16.73;;;3.10;;
48853;SDS011;34673;52.808;17.856;2023-02-18T00:16:28;13.52;;;2.50;;
48853;SDS011;34673;52.808;17.856;2023-02-18T00:18:57;11.73;;;2.20;;
48853;SDS011;34673;52.808;17.856;2023-02-18T00:21:26;15.45;;;2.40;;
48853;SDS011;34673;52.808;17.856;2023-02-18T00:23:54;11.50;;;2.25;;
48853;SDS011;34673;52.808;17.856;2023-02-18T00:26:22;10.85;;;2.15;;
48853;SDS011;34673;52.808;17.856;2023-02-18T00:28:49;14.55;;;2.47;;
48853;SDS011;34673;52.808;17.856;2023-02-18T00:31:19;14.13;;;2.13;;
48853;SDS011;34673;52.808;17.856;2023-02-18T00:33:52;15.77;;;2.55;;
48853;SDS011;34673;52.808;17.856;2023-02-18T00:36:21;16.40;;;2.95;;
48853;SDS011;34673;52.808;17.856;2023-02-18T00:38:50;12.40;;;2.17;;
48853;SDS011;34673;52.808;17.856;2023-02-18T00:41:19;16.23;;;2.45;;
48853;SDS011;34673;52.808;17.856;2023-02-18T00:43:47;12.57;;;2.45;;
48853;SDS011;34673;52.808;17.856;2023-02-18T00:46:14;17.75;;;2.55;;
48853;SDS011;34673;52.808;17.856;2023-02-18T00:48:42;15.48;;;3.00;;
48853;SDS011;34673;52.808;17.856;2023-02-18T00:51:10;16.40;;;1.95;;
48853;SDS011;34673;52.808;17.856;2023-02-18T00:53:38;17.88;;;2.70;;
48853;SDS011;34673;52.808;17.856;2023-02-18T00:56:08;11.43;;;2.47;;
48853;SDS011;34673;52.808;17.856;2023-02-18T00:58:36;14.57;;;2.05;;
48853;SDS011;34673;52.808;17.856;2023-02-18T01:01:04;19.30;;;2.28;;
48853;SDS011;34673;52.808;17.856;2023-02-18T01:03:34;12.38;;;2.13;;
48853;SDS011;34673;52.808;17.856;2023-02-18T01:06:03;13.80;;;2.30;;
48853;SDS011;34673;52.808;17.856;2023-02-18T01:08:31;15.18;;;2.65;;
48853;SDS011;34673;52.808;17.856;2023-02-18T01:11:00;13.82;;;2.45;;
48853;SDS011;34673;52.808;17.856;2023-02-18T01:13:28;11.80;;;2.15;;
48853;SDS011;34673;52.808;17.856;2023-02-18T01:15:56;14.57;;;2.67;;
48853;SDS011;34673;52.808;17.856;2023-02-18T01:18:23;14.23;;;2.05;;
48853;SDS011;34673;52.808;17.856;2023-02-18T01:20:52;15.00;;;1.95;;
48853;SDS011;34673;52.808;17.856;2023-02-18T01:23:19;13.18;;;2.30;;
48853;SDS011;34673;52.808;17.856;2023-02-18T01:25:48;16.35;;;1.90;;
48853;SDS011;34673;52.808;17.856;2023-02-18T01:28:15;13.75;;;2.28;;
48853;SDS011;34673;52.808;17.856;2023-02-18T01:30:44;13.85;;;2.47;;
48853;SDS011;34673;52.808;17.856;2023-02-18T01:33:12;12.05;;;2.55;;
48853;SDS011;34673;52.808;17.856;2023-02-18T01:35:39;16.60;;;2.17;;
48853;SDS011;34673;52.808;17.856;2023-02-18T01:38:07;21.05;;;2.67;;
48853;SDS011;34673;52.808;17.856;2023-02-18T01:40:35;12.20;;;2.63;;
48853;SDS011;34673;52.808;17.856;2023-02-18T01:43:10;14.60;;;2.78;;
48853;SDS011;34673;52.808;17.856;2023-02-18T01:45:47;14.43;;;2.50;;
48853;SDS011;34673;52.808;17.856;2023-02-18T01:48:22;10.82;;;2.17;;
48853;SDS011;34673;52.808;17.856;2023-02-18T01:51:04;12.00;;;2.58;;
48853;SDS011;34673;52.808;17.856;2023-02-18T01:53:43;10.25;;;2.30;;
48853;SDS011;34673;52.808;17.856;2023-02-18T01:56:18;13.07;;;2.20;;
48853;SDS011;34673;52.808;17.856;2023-02-18T01:58:50;15.38;;;2.22;;
48853;SDS011;34673;52.808;17.856;2023-02-18T02:01:20;13.48;;;2.13;;
48853;SDS011;34673;52.808;17.856;2023-02-18T02:03:47;13.13;;;1.98;;
48853;SDS011;34673;52.808;17.856;2023-02-18T02:06:16;10.43;;;1.80;;
48853;SDS011;34673;52.808;17.856;2023-02-18T02:08:48;12.43;;;2.03;;
48853;SDS011;34673;52.808;17.856;2023-02-18T02:11:26;10.07;;;1.80;;
48853;SDS011;34673;52.808;17.856;2023-02-18T02:14:15;17.13;;;2.13;;
48853;SDS011;34673;52.808;17.856;2023-02-18T02:36:30;12.40;;;2.85;;
48853;SDS011;34673;52.808;17.856;2023-02-18T02:44:57;17.30;;;2.15;;
48853;SDS011;34673;52.808;17.856;2023-02-18T02:47:52;13.35;;;2.33;;
48853;SDS011;34673;52.808;17.856;2023-02-18T02:53:44;12.70;;;2.45;;
48853;SDS011;34673;52.808;17.856;2023-02-18T02:56:16;13.65;;;2.67;;
48853;SDS011;34673;52.808;17.856;2023-02-18T02:58:46;9.55;;;1.65;;
48853;SDS011;34673;52.808;17.856;2023-02-18T03:01:25;14.18;;;3.05;;
48853;SDS011;34673;52.808;17.856;2023-02-18T03:18:34;8.45;;;1.92;;
48853;SDS011;34673;52.808;17.856;2023-02-18T03:21:17;11.75;;;2.20;;
48853;SDS011;34673;52.808;17.856;2023-02-18T03:23:55;12.90;;;2.40;;
48853;SDS011;34673;52.808;17.856;2023-02-18T03:26:27;18.90;;;2.92;;
48853;SDS011;34673;52.808;17.856;2023-02-18T03:31:28;12.88;;;2.13;;
48853;SDS011;34673;52.808;17.856;2023-02-18T03:34:05;14.15;;;1.80;;
48853;SDS011;34673;52.808;17.856;2023-02-18T03:36:36;13.32;;;2.05;;
48853;SDS011;34673;52.808;17.856;2023-02-18T03:39:13;9.52;;;1.77;;
48853;SDS011;34673;52.808;17.856;2023-02-18T03:41:42;9.90;;;2.10;;
48853;SDS011;34673;52.808;17.856;2023-02-18T03:44:11;9.77;;;1.45;;
48853;SDS011;34673;52.808;17.856;2023-02-18T03:46:40;12.10;;;1.80;;
48853;SDS011;34673;52.808;17.856;2023-02-18T03:49:10;12.50;;;1.92;;
48853;SDS011;34673;52.808;17.856;2023-02-18T03:51:39;12.10;;;1.83;;
48853;SDS011;34673;52.808;17.856;2023-02-18T03:54:07;13.38;;;2.35;;
48853;SDS011;34673;52.808;17.856;2023-02-18T03:56:35;11.93;;;1.77;;
48853;SDS011;34673;52.808;17.856;2023-02-18T03:59:03;14.82;;;1.95;;
48853;SDS011;34673;52.808;17.856;2023-02-18T04:01:30;13.35;;;2.20;;
48853;SDS011;34673;52.808;17.856;2023-02-18T04:03:58;17.08;;;2.42;;
48853;SDS011;34673;52.808;17.856;2023-02-18T04:06:25;12.07;;;2.10;;
48853;SDS011;34673;52.808;17.856;2023-02-18T04:08:53;14.52;;;2.85;;
48853;SDS011;34673;52.808;17.856;2023-02-18T04:11:20;15.50;;;2.20;;
48853;SDS011;34673;52.808;17.856;2023-02-18T04:13:48;12.80;;;1.92;;
48853;SDS011;34673;52.808;17.856;2023-02-18T04:16:15;12.15;;;2.28;;
48853;SDS011;34673;52.808;17.856;2023-02-18T04:18:42;13.80;;;2.22;;
48853;SDS011;34673;52.808;17.856;2023-02-18T04:21:10;12.75;;;2.40;;
48853;SDS011;34673;52.808;17.856;2023-02-18T04:23:37;16.10;;;2.20;;
48853;SDS011;34673;52.808;17.856;2023-02-18T04:26:04;13.00;;;2.10;;
48853;SDS011;34673;52.808;17.856;2023-02-18T04:28:32;13.30;;;2.05;;
48853;SDS011;34673;52.808;17.856;2023-02-18T04:30:59;22.92;;;2.83;;
48853;SDS011;34673;52.808;17.856;2023-02-18T04:33:27;12.00;;;2.42;;
48853;SDS011;34673;52.808;17.856;2023-02-18T04:35:54;13.18;;;1.85;;
48853;SDS011;34673;52.808;17.856;2023-02-18T04:38:22;16.70;;;2.72;;
48853;SDS011;34673;52.808;17.856;2023-02-18T04:40:49;14.38;;;2.25;;
48853;SDS011;34673;52.808;17.856;2023-02-18T04:43:17;15.23;;;2.50;;
48853;SDS011;34673;52.808;17.856;2023-02-18T04:45:44;14.85;;;2.13;;
48853;SDS011;34673;52.808;17.856;2023-02-18T04:48:12;10.32;;;1.85;;
48853;SDS011;34673;52.808;17.856;2023-02-18T04:50:39;13.15;;;1.90;;
48853;SDS011;34673;52.808;17.856;2023-02-18T04:53:07;11.18;;;2.20;;
48853;SDS011;34673;52.808;17.856;2023-02-18T04:55:34;10.75;;;2.22;;
48853;SDS011;34673;52.808;17.856;2023-02-18T04:58:01;14.57;;;2.53;;
48853;SDS011;34673;52.808;17.856;2023-02-18T05:00:29;13.05;;;1.80;;
48853;SDS011;34673;52.808;17.856;2023-02-18T05:02:56;16.58;;;2.67;;
48853;SDS011;34673;52.808;17.856;2023-02-18T05:05:23;9.50;;;1.73;;
48853;SDS011;34673;52.808;17.856;2023-02-18T05:07:51;16.90;;;2.92;;
48853;SDS011;34673;52.808;17.856;2023-02-18T05:10:18;14.98;;;2.95;;
48853;SDS011;34673;52.808;17.856;2023-02-18T05:12:45;14.80;;;2.00;;
48853;SDS011;34673;52.808;17.856;2023-02-18T05:15:13;12.75;;;2.25;;
48853;SDS011;34673;52.808;17.856;2023-02-18T05:17:41;14.30;;;2.33;;
48853;SDS011;34673;52.808;17.856;2023-02-18T05:20:08;16.70;;;2.10;;
48853;SDS011;34673;52.808;17.856;2023-02-18T05:22:36;12.38;;;1.73;;
48853;SDS011;34673;52.808;17.856;2023-02-18T05:25:04;11.40;;;1.80;;
48853;SDS011;34673;52.808;17.856;2023-02-18T05:27:32;15.38;;;2.30;;
48853;SDS011;34673;52.808;17.856;2023-02-18T05:29:59;13.32;;;2.17;;
48853;SDS011;34673;52.808;17.856;2023-02-18T05:32:27;11.10;;;1.90;;
48853;SDS011;34673;52.808;17.856;2023-02-18T05:34:54;12.52;;;2.10;;
48853;SDS011;34673;52.808;17.856;2023-02-18T05:37:21;12.73;;;2.30;;
48853;SDS011;34673;52.808;17.856;2023-02-18T05:39:49;18.83;;;3.45;;
48853;SDS011;34673;52.808;17.856;2023-02-18T05:42:16;13.48;;;2.05;;
48853;SDS011;34673;52.808;17.856;2023-02-18T05:44:43;15.10;;;2.60;;
48853;SDS011;34673;52.808;17.856;2023-02-18T05:47:11;13.57;;;2.25;;
48853;SDS011;34673;52.808;17.856;2023-02-18T05:49:39;13.57;;;2.80;;
48853;SDS011;34673;52.808;17.856;2023-02-18T05:52:08;14.38;;;2.90;;
48853;SDS011;34673;52.808;17.856;2023-02-18T05:54:36;14.55;;;2.20;;
48853;SDS011;34673;52.808;17.856;2023-02-18T05:57:04;19.98;;;3.00;;
48853;SDS011;34673;52.808;17.856;2023-02-18T05:59:32;19.00;;;2.83;;
48853;SDS011;34673;52.808;17.856;2023-02-18T06:01:59;12.45;;;2.28;;
48853;SDS011;34673;52.808;17.856;2023-02-18T06:04:27;15.85;;;2.50;;
48853;SDS011;34673;52.808;17.856;2023-02-18T06:06:55;15.35;;;2.17;;
48853;SDS011;34673;52.808;17.856;2023-02-18T06:09:22;14.95;;;2.20;;
48853;SDS011;34673;52.808;17.856;2023-02-18T06:11:49;13.48;;;2.38;;
48853;SDS011;34673;52.808;17.856;2023-02-18T06:14:17;16.02;;;2.55;;
48853;SDS011;34673;52.808;17.856;2023-02-18T06:16:44;19.02;;;2.80;;
48853;SDS011;34673;52.808;17.856;2023-02-18T06:19:11;13.20;;;2.28;;
48853;SDS011;34673;52.808;17.856;2023-02-18T06:21:39;14.95;;;2.10;;
48853;SDS011;34673;52.808;17.856;2023-02-18T06:24:06;13.45;;;2.17;;
48853;SDS011;34673;52.808;17.856;2023-02-18T06:26:34;17.38;;;2.55;;
48853;SDS011;34673;52.808;17.856;2023-02-18T06:29:01;16.02;;;2.05;;
48853;SDS011;34673;52.808;17.856;2023-02-18T06:31:29;12.60;;;3.17;;
48853;SDS011;34673;52.808;17.856;2023-02-18T06:33:57;16.27;;;2.92;;
48853;SDS011;34673;52.808;17.856;2023-02-18T06:36:24;14.75;;;2.58;;
48853;SDS011;34673;52.808;17.856;2023-02-18T06:38:51;13.38;;;2.40;;
48853;SDS011;34673;52.808;17.856;2023-02-18T06:41:22;11.75;;;1.92;;
48853;SDS011;34673;52.808;17.856;2023-02-18T06:43:49;10.93;;;2.28;;
48853;SDS011;34673;52.808;17.856;2023-02-18T06:46:17;11.02;;;2.53;;
48853;SDS011;34673;52.808;17.856;2023-02-18T06:48:44;14.10;;;2.70;;
48853;SDS011;34673;52.808;17.856;2023-02-18T06:51:12;17.67;;;2.38;;
48853;SDS011;34673;52.808;17.856;2023-02-18T06:53:40;16.58;;;2.28;;
48853;SDS011;34673;52.808;17.856;2023-02-18T06:56:09;14.82;;;2.58;;
48853;SDS011;34673;52.808;17.856;2023-02-18T06:58:37;16.23;;;2.80;;
48853;SDS011;34673;52.808;17.856;2023-02-18T07:01:05;13.55;;;2.20;;
48853;SDS011;34673;52.808;17.856;2023-02-18T07:03:32;15.02;;;2.08;;
48853;SDS011;34673;52.808;17.856;2023-02-18T07:06:00;18.80;;;2.63;;
48853;SDS011;34673;52.808;17.856;2023-02-18T07:08:27;18.05;;;2.70;;
48853;SDS011;34673;52.808;17.856;2023-02-18T07:10:56;16.60;;;2.70;;
48853;SDS011;34673;52.808;17.856;2023-02-18T07:13:24;16.33;;;2.30;;
48853;SDS011;34673;52.808;17.856;2023-02-18T07:15:51;17.30;;;2.58;;
48853;SDS011;34673;52.808;17.856;2023-02-18T07:18:18;20.67;;;2.42;;
48853;SDS011;34673;52.808;17.856;2023-02-18T07:20:46;13.88;;;2.33;;
48853;SDS011;34673;52.808;17.856;2023-02-18T07:23:13;18.70;;;2.92;;
48853;SDS011;34673;52.808;17.856;2023-02-18T07:25:40;15.48;;;2.40;;
48853;SDS011;34673;52.808;17.856;2023-02-18T07:28:08;18.38;;;2.63;;
48853;SDS011;34673;52.808;17.856;2023-02-18T07:30:35;14.52;;;2.58;;
48853;SDS011;34673;52.808;17.856;2023-02-18T07:33:02;15.68;;;3.25;;
48853;SDS011;34673;52.808;17.856;2023-02-18T07:35:30;13.27;;;2.78;;
48853;SDS011;34673;52.808;17.856;2023-02-18T07:37:57;16.75;;;3.28;;
48853;SDS011;34673;52.808;17.856;2023-02-18T07:40:24;17.80;;;2.88;;
48853;SDS011;34673;52.808;17.856;2023-02-18T07:42:52;16.20;;;3.50;;
48853;SDS011;34673;52.808;17.856;2023-02-18T07:45:19;17.77;;;2.97;;
48853;SDS011;34673;52.808;17.856;2023-02-18T07:47:47;12.18;;;2.47;;
48853;SDS011;34673;52.808;17.856;2023-02-18T07:50:15;16.80;;;2.53;;
48853;SDS011;34673;52.808;17.856;2023-02-18T07:52:43;12.60;;;2.22;;
48853;SDS011;34673;52.808;17.856;2023-02-18T07:55:10;17.90;;;3.30;;
48853;SDS011;34673;52.808;17.856;2023-02-18T07:57:38;15.00;;;2.90;;
48853;SDS011;34673;52.808;17.856;2023-02-18T08:00:23;16.05;;;2.40;;
48853;SDS011;34673;52.808;17.856;2023-02-18T08:02:51;16.60;;;2.47;;
48853;SDS011;34673;52.808;17.856;2023-02-18T08:05:18;14.57;;;2.95;;
48853;SDS011;34673;52.808;17.856;2023-02-18T08:07:47;16.63;;;2.92;;
48853;SDS011;34673;52.808;17.856;2023-02-18T08:10:15;20.58;;;3.25;;
48853;SDS011;34673;52.808;17.856;2023-02-18T08:12:43;12.75;;;3.25;;
48853;SDS011;34673;52.808;17.856;2023-02-18T08:15:11;20.95;;;3.67;;
48853;SDS011;34673;52.808;17.856;2023-02-18T08:17:39;12.93;;;2.60;;
48853;SDS011;34673;52.808;17.856;2023-02-18T08:20:08;15.77;;;2.78;;
48853;SDS011;34673;52.808;17.856;2023-02-18T08:22:37;14.55;;;2.78;;
48853;SDS011;34673;52.808;17.856;2023-02-18T08:25:05;14.73;;;2.47;;
48853;SDS011;34673;52.808;17.856;2023-02-18T08:27:37;21.55;;;3.53;;
48853;SDS011;34673;52.808;17.856;2023-02-18T08:30:06;17.48;;;2.70;;
48853;SDS011;34673;52.808;17.856;2023-02-18T08:32:35;18.02;;;3.90;;
48853;SDS011;34673;52.808;17.856;2023-02-18T08:35:03;18.33;;;3.13;;
48853;SDS011;34673;52.808;17.856;2023-02-18T08:40:19;16.70;;;2.83;;
48853;SDS011;34673;52.808;17.856;2023-02-18T08:42:47;16.58;;;2.65;;
48853;SDS011;34673;52.808;17.856;2023-02-18T08:45:15;16.73;;;3.90;;
48853;SDS011;34673;52.808;17.856;2023-02-18T08:47:44;22.17;;;3.95;;
48853;SDS011;34673;52.808;17.856;2023-02-18T08:50:32;15.77;;;3.47;;
48853;SDS011;34673;52.808;17.856;2023-02-18T08:53:01;16.77;;;2.92;;
48853;SDS011;34673;52.808;17.856;2023-02-18T08:55:30;17.60;;;2.83;;
48853;SDS011;34673;52.808;17.856;2023-02-18T08:58:00;21.20;;;3.03;;
48853;SDS011;34673;52.808;17.856;2023-02-18T09:00:28;18.35;;;2.95;;
48853;SDS011;34673;52.808;17.856;2023-02-18T09:02:56;16.73;;;2.72;;
48853;SDS011;34673;52.808;17.856;2023-02-18T09:05:24;19.75;;;2.80;;
48853;SDS011;34673;52.808;17.856;2023-02-18T09:07:52;21.17;;;3.05;;
48853;SDS011;34673;52.808;17.856;2023-02-18T09:10:20;23.67;;;3.67;;
48853;SDS011;34673;52.808;17.856;2023-02-18T09:12:47;18.50;;;3.58;;
48853;SDS011;34673;52.808;17.856;2023-02-18T09:15:16;20.05;;;2.90;;
48853;SDS011;34673;52.808;17.856;2023-02-18T09:17:44;16.65;;;2.88;;
48853;SDS011;34673;52.808;17.856;2023-02-18T09:20:12;16.25;;;2.90;;
48853;SDS011;34673;52.808;17.856;2023-02-18T09:22:40;18.92;;;2.95;;
48853;SDS011;34673;52.808;17.856;2023-02-18T09:25:08;16.75;;;2.60;;
48853;SDS011;34673;52.808;17.856;2023-02-18T09:27:36;11.73;;;3.08;;
48853;SDS011;34673;52.808;17.856;2023-02-18T09:30:04;17.83;;;3.30;;
48853;SDS011;34673;52.808;17.856;2023-02-18T09:32:33;18.83;;;3.20;;
48853;SDS011;34673;52.808;17.856;2023-02-18T09:35:02;14.35;;;2.50;;
48853;SDS011;34673;52.808;17.856;2023-02-18T09:39:59;26.77;;;5.00;;
48853;SDS011;34673;52.808;17.856;2023-02-18T09:42:29;18.95;;;3.20;;
48853;SDS011;34673;52.808;17.856;2023-02-18T09:45:00;16.70;;;3.28;;
48853;SDS011;34673;52.808;17.856;2023-02-18T09:47:36;19.40;;;2.58;;
48853;SDS011;34673;52.808;17.856;2023-02-18T09:50:12;18.95;;;3.65;;
48853;SDS011;34673;52.808;17.856;2023-02-18T09:52:47;12.75;;;2.42;;
48853;SDS011;34673;52.808;17.856;2023-02-18T09:57:55;14.90;;;3.20;;
48853;SDS011;34673;52.808;17.856;2023-02-18T10:00:45;12.68;;;2.65;;
48853;SDS011;34673;52.808;17.856;2023-02-18T10:03:20;22.70;;;4.93;;
48853;SDS011;34673;52.808;17.856;2023-02-18T10:05:52;19.05;;;3.58;;
48853;SDS011;34673;52.808;17.856;2023-02-18T10:08:29;20.45;;;3.80;;
48853;SDS011;34673;52.808;17.856;2023-02-18T10:11:01;16.75;;;3.65;;
48853;SDS011;34673;52.808;17.856;2023-02-18T10:13:31;16.67;;;3.15;;
48853;SDS011;34673;52.808;17.856;2023-02-18T10:16:00;19.98;;;3.60;;
48853;SDS011;34673;52.808;17.856;2023-02-18T10:18:31;13.00;;;3.53;;
48853;SDS011;34673;52.808;17.856;2023-02-18T10:21:08;15.55;;;2.85;;
48853;SDS011;34673;52.808;17.856;2023-02-18T10:23:44;27.13;;;6.03;;
48853;SDS011;34673;52.808;17.856;2023-02-18T10:26:28;13.70;;;3.03;;
48853;SDS011;34673;52.808;17.856;2023-02-18T10:28:59;15.68;;;3.78;;
48853;SDS011;34673;52.808;17.856;2023-02-18T10:31:29;15.18;;;4.03;;
48853;SDS011;34673;52.808;17.856;2023-02-18T10:34:12;15.25;;;3.42;;
48853;SDS011;34673;52.808;17.856;2023-02-18T10:36:54;15.85;;;2.90;;
48853;SDS011;34673;52.808;17.856;2023-02-18T10:45:25;19.48;;;5.13;;
48853;SDS011;34673;52.808;17.856;2023-02-18T10:48:26;15.82;;;3.05;;
48853;SDS011;34673;52.808;17.856;2023-02-18T10:54:06;21.60;;;3.97;;
48853;SDS011;34673;52.808;17.856;2023-02-18T10:56:47;15.70;;;3.35;;
48853;SDS011;34673;52.808;17.856;2023-02-18T10:59:20;18.85;;;4.35;;
48853;SDS011;34673;52.808;17.856;2023-02-18T11:01:57;16.33;;;2.53;;
48853;SDS011;34673;52.808;17.856;2023-02-18T11:04:39;15.13;;;3.20;;
48853;SDS011;34673;52.808;17.856;2023-02-18T11:07:30;16.10;;;4.25;;
48853;SDS011;34673;52.808;17.856;2023-02-18T11:10:07;18.30;;;3.40;;
48853;SDS011;34673;52.808;17.856;2023-02-18T11:12:45;18.50;;;4.20;;
48853;SDS011;34673;52.808;17.856;2023-02-18T11:15:18;17.45;;;3.17;;
48853;SDS011;34673;52.808;17.856;2023-02-18T11:17:51;16.27;;;3.72;;
48853;SDS011;34673;52.808;17.856;2023-02-18T11:25:34;12.93;;;2.97;;
48853;SDS011;34673;52.808;17.856;2023-02-18T11:30:43;18.98;;;4.65;;
48853;SDS011;34673;52.808;17.856;2023-02-18T11:38:22;15.32;;;3.63;;
48853;SDS011;34673;52.808;17.856;2023-02-18T11:40:55;19.85;;;4.00;;
48853;SDS011;34673;52.808;17.856;2023-02-18T11:43:29;10.65;;;2.25;;
48853;SDS011;34673;52.808;17.856;2023-02-18T11:46:10;22.30;;;3.83;;
48853;SDS011;34673;52.808;17.856;2023-02-18T11:48:49;11.60;;;2.60;;
48853;SDS011;34673;52.808;17.856;2023-02-18T11:51:24;14.32;;;3.40;;
48853;SDS011;34673;52.808;17.856;2023-02-18T11:56:28;11.48;;;2.58;;
48853;SDS011;34673;52.808;17.856;2023-02-18T11:58:59;13.70;;;2.45;;
48853;SDS011;34673;52.808;17.856;2023-02-18T12:01:37;11.90;;;2.33;;
48853;SDS011;34673;52.808;17.856;2023-02-18T12:04:16;15.13;;;3.13;;
48853;SDS011;34673;52.808;17.856;2023-02-18T12:09:26;10.13;;;2.80;;
48853;SDS011;34673;52.808;17.856;2023-02-18T12:11:58;14.27;;;3.90;;
48853;SDS011;34673;52.808;17.856;2023-02-18T12:14:29;15.82;;;3.00;;
48853;SDS011;34673;52.808;17.856;2023-02-18T12:25:23;13.15;;;2.85;;
48853;SDS011;34673;52.808;17.856;2023-02-18T12:30:59;12.98;;;3.90;;
48853;SDS011;34673;52.808;17.856;2023-02-18T12:36:37;15.48;;;3.00;;
48853;SDS011;34673;52.808;17.856;2023-02-18T12:45:07;11.57;;;2.70;;
48853;SDS011;34673;52.808;17.856;2023-02-18T12:58:58;10.20;;;2.00;;
48853;SDS011;34673;52.808;17.856;2023-02-18T13:07:43;9.68;;;2.35;;
48853;SDS011;34673;52.808;17.856;2023-02-18T13:13:10;12.32;;;3.40;;
48853;SDS011;34673;52.808;17.856;2023-02-18T13:15:39;10.20;;;2.65;;
48853;SDS011;34673;52.808;17.856;2023-02-18T13:18:12;6.88;;;1.40;;
48853;SDS011;34673;52.808;17.856;2023-02-18T13:20:46;10.73;;;2.05;;
48853;SDS011;34673;52.808;17.856;2023-02-18T13:23:21;8.70;;;2.10;;
48853;SDS011;34673;52.808;17.856;2023-02-18T13:25:55;9.82;;;2.22;;
48853;SDS011;34673;52.808;17.856;2023-02-18T13:31:18;7.90;;;2.07;;
48853;SDS011;34673;52.808;17.856;2023-02-18T13:39:55;6.38;;;1.30;;
48853;SDS011;34673;52.808;17.856;2023-02-18T13:47:45;8.43;;;2.33;;
48853;SDS011;34673;52.808;17.856;2023-02-18T13:50:26;9.70;;;2.53;;
48853;SDS011;34673;52.808;17.856;2023-02-18T13:58:36;8.85;;;1.98;;
48853;SDS011;34673;52.808;17.856;2023-02-18T14:07:15;8.15;;;1.88;;
48853;SDS011;34673;52.808;17.856;2023-02-18T14:09:33;12.05;;;3.03;;
48853;SDS011;34673;52.808;17.856;2023-02-18T14:11:55;12.27;;;2.65;;
48853;SDS011;34673;52.808;17.856;2023-02-18T14:14:41;8.90;;;2.03;;
48853;SDS011;34673;52.808;17.856;2023-02-18T14:19:53;7.60;;;2.60;;
48853;SDS011;34673;52.808;17.856;2023-02-18T14:22:28;7.07;;;2.22;;
48853;SDS011;34673;52.808;17.856;2023-02-18T14:25:02;10.77;;;3.15;;
48853;SDS011;34673;52.808;17.856;2023-02-18T14:27:30;12.65;;;3.70;;
48853;SDS011;34673;52.808;17.856;2023-02-18T14:30:01;5.85;;;2.00;;
48853;SDS011;34673;52.808;17.856;2023-02-18T14:32:33;13.20;;;3.92;;
48853;SDS011;34673;52.808;17.856;2023-02-18T14:35:06;12.32;;;3.33;;
48853;SDS011;34673;52.808;17.856;2023-02-18T14:40:50;9.73;;;2.92;;
48853;SDS011;34673;52.808;17.856;2023-02-18T14:46:08;10.18;;;3.22;;
48853;SDS011;34673;52.808;17.856;2023-02-18T14:51:20;6.55;;;2.10;;
48853;SDS011;34673;52.808;17.856;2023-02-18T14:53:49;11.05;;;2.72;;
48853;SDS011;34673;52.808;17.856;2023-02-18T14:56:18;6.25;;;1.80;;
48853;SDS011;34673;52.808;17.856;2023-02-18T14:58:49;10.55;;;2.70;;
48853;SDS011;34673;52.808;17.856;2023-02-18T15:01:26;9.40;;;2.80;;
48853;SDS011;34673;52.808;17.856;2023-02-18T15:03:57;7.03;;;2.13;;
48853;SDS011;34673;52.808;17.856;2023-02-18T15:08:56;6.88;;;2.38;;
48853;SDS011;34673;52.808;17.856;2023-02-18T15:11:29;7.95;;;2.10;;
48853;SDS011;34673;52.808;17.856;2023-02-18T15:14:20;10.38;;;1.83;;
48853;SDS011;34673;52.808;17.856;2023-02-18T15:17:00;8.02;;;2.58;;
48853;SDS011;34673;52.808;17.856;2023-02-18T15:19:31;9.95;;;2.42;;
48853;SDS011;34673;52.808;17.856;2023-02-18T15:22:06;10.15;;;2.88;;
48853;SDS011;34673;52.808;17.856;2023-02-18T15:24:41;10.45;;;4.68;;
48853;SDS011;34673;52.808;17.856;2023-02-18T15:27:14;7.22;;;2.28;;
48853;SDS011;34673;52.808;17.856;2023-02-18T15:29:49;7.15;;;1.77;;
48853;SDS011;34673;52.808;17.856;2023-02-18T15:32:20;7.13;;;1.75;;
48853;SDS011;34673;52.808;17.856;2023-02-18T15:34:56;6.05;;;2.22;;
48853;SDS011;34673;52.808;17.856;2023-02-18T15:37:27;5.60;;;1.92;;
48853;SDS011;34673;52.808;17.856;2023-02-18T15:39:56;6.20;;;2.42;;
48853;SDS011;34673;52.808;17.856;2023-02-18T15:44:57;7.30;;;1.85;;
48853;SDS011;34673;52.808;17.856;2023-02-18T15:47:25;9.38;;;2.53;;
48853;SDS011;34673;52.808;17.856;2023-02-18T15:49:53;5.28;;;1.85;;
48853;SDS011;34673;52.808;17.856;2023-02-18T15:52:28;4.85;;;1.70;;
48853;SDS011;34673;52.808;17.856;2023-02-18T15:55:03;9.40;;;1.85;;
48853;SDS011;34673;52.808;17.856;2023-02-18T15:57:38;6.90;;;1.50;;
48853;SDS011;34673;52.808;17.856;2023-02-18T16:00:17;5.88;;;1.70;;
48853;SDS011;34673;52.808;17.856;2023-02-18T16:03:03;4.60;;;1.90;;
48853;SDS011;34673;52.808;17.856;2023-02-18T16:05:39;4.40;;;2.20;;
48853;SDS011;34673;52.808;17.856;2023-02-18T16:08:16;7.17;;;2.20;;
48853;SDS011;34673;52.808;17.856;2023-02-18T16:10:45;7.05;;;2.50;;
48853;SDS011;34673;52.808;17.856;2023-02-18T16:13:16;7.07;;;2.58;;
48853;SDS011;34673;52.808;17.856;2023-02-18T16:15:44;5.30;;;1.88;;
48853;SDS011;34673;52.808;17.856;2023-02-18T16:18:27;5.47;;;1.77;;
48853;SDS011;34673;52.808;17.856;2023-02-18T16:23:44;6.97;;;2.23;;
48853;SDS011;34673;52.808;17.856;2023-02-18T16:26:29;5.95;;;2.20;;
48853;SDS011;34673;52.808;17.856;2023-02-18T16:29:09;4.88;;;2.22;;
48853;SDS011;34673;52.808;17.856;2023-02-18T16:31:40;3.97;;;1.50;;
48853;SDS011;34673;52.808;17.856;2023-02-18T16:34:07;4.50;;;1.40;;
48853;SDS011;34673;52.808;17.856;2023-02-18T16:36:35;4.03;;;1.63;;
48853;SDS011;34673;52.808;17.856;2023-02-18T16:39:03;4.15;;;1.35;;
48853;SDS011;34673;52.808;17.856;2023-02-18T16:41:31;3.05;;;1.30;;
48853;SDS011;34673;52.808;17.856;2023-02-18T16:43:58;4.03;;;1.73;;
48853;SDS011;34673;52.808;17.856;2023-02-18T16:46:26;5.15;;;2.05;;
48853;SDS011;34673;52.808;17.856;2023-02-18T16:48:56;3.65;;;1.63;;
48853;SDS011;34673;52.808;17.856;2023-02-18T16:51:29;5.25;;;1.75;;
48853;SDS011;34673;52.808;17.856;2023-02-18T16:54:01;6.05;;;2.05;;
48853;SDS011;34673;52.808;17.856;2023-02-18T16:56:30;3.65;;;1.60;;
48853;SDS011;34673;52.808;17.856;2023-02-18T16:59:00;7.88;;;3.70;;
48853;SDS011;34673;52.808;17.856;2023-02-18T17:01:33;25.60;;;8.07;;
48853;SDS011;34673;52.808;17.856;2023-02-18T17:04:04;27.17;;;9.93;;
48853;SDS011;34673;52.808;17.856;2023-02-18T17:06:33;24.63;;;9.80;;
48853;SDS011;34673;52.808;17.856;2023-02-18T17:09:01;19.75;;;8.52;;
48853;SDS011;34673;52.808;17.856;2023-02-18T17:11:40;11.45;;;6.00;;
48853;SDS011;34673;52.808;17.856;2023-02-18T17:14:09;13.30;;;6.20;;
48853;SDS011;34673;52.808;17.856;2023-02-18T17:16:41;17.88;;;7.82;;
48853;SDS011;34673;52.808;17.856;2023-02-18T17:19:09;12.25;;;6.20;;
48853;SDS011;34673;52.808;17.856;2023-02-18T17:21:37;9.68;;;4.32;;
48853;SDS011;34673;52.808;17.856;2023-02-18T17:24:10;7.20;;;3.60;;
48853;SDS011;34673;52.808;17.856;2023-02-18T17:26:39;8.82;;;3.95;;
48853;SDS011;34673;52.808;17.856;2023-02-18T17:29:08;5.93;;;2.80;;
48853;SDS011;34673;52.808;17.856;2023-02-18T17:31:38;6.05;;;2.85;;